If you wish to contribute or participate in the discussions about articles you are invited to join SKYbrary as a registered user

 Actions

Athens/Ben Epps Airport

From SKYbrary Wiki

KAHN
Airport
ICAO: KAHN – IATA: AHN
Summary
Name Athens/Ben Epps Airport
Region North America
Territory United States US.gif
Location Athens, Georgia
Serving Athens
Elevation 246.278 m
808 ft
808 ft246.278 m
Coordinates 33° 57' 6.0386", -83° 19' 36.6136"
Runways
Designator Length Width Surface ROPS
2/20 1219 m3,999.344 ft 30 m98.425 ft ASP yes/yes
9/27 1683 m5,521.654 ft 30 m98.425 ft ASP yes/yes


METAR
Observation KAHN 191351Z 00000KT 10SM CLR 30/23 A3006 RMK AO2 SLP169 T03000233
Station Athens, Athens Airport
Date/Time 19 June 2018 13:51:00
Wind direction
Wind speed 00 kts
Lowest cloud amount n/a
Temperature 30°C
Dew point 23.3°C
Humidity 67%
QNH hPa
Weather condition n/a

WX
Tag(s) Cumulonimbus
Tropical Revolving Storm

Athens/Ben Epps Airport

ICAO: KAHN IATA: AHN

Description

Athens-Ben Epps Airport is a public use airport located 6 km3.24 nm
6,000 m
19,685.039 ft
east of the central business district of Athens, a city in Clarke County, Georgia.

Climatology

Humid “subtropical” climate (Köppen climate classification Cfa) - characterized by hot, humid summers and cool winters. Significant amounts of precipitation occur in all seasons in most areas.

Maps

Terrain

Loading map...

Airport Layout

Loading map...


Accidents & Serious Incidents at or in vicinity of KAHN

None on SKYbrary